Time;durP1;ratioP1;P1;durP2;ratioP2;P2;SDS_P1;SDS_P2;PMS_P1;PMS_P2;Temp;Humidity;BMP_temperature;BMP_pressure;BME280_temperature;BME280_humidity;BME280_pressure;Samples;Min_cycle;Max_cycle;Signal;HPM_P1;HPM_P2
2022/05/19 00:02:11;;;;;;;7.77;2.07;;;;;;;15.95;38.89;101602.03;5391826;32;34991;-71
2022/05/19 00:05:13;;;;;;;;;;;;;;;15.79;39.75;101603.63;5375685;32;46549;-70
2022/05/19 00:08:15;;;;;;;6.83;2.00;;;;;;;16.44;37.50;101611.41;5387502;32;34685;-69
2022/05/19 00:11:21;;;;;;;3.80;1.67;;;;;;;15.01;39.91;101606.72;5384994;32;34428;-69
2022/05/19 00:14:23;;;;;;;5.83;2.10;;;;;;;14.09;42.49;101613.47;5363202;32;34861;-69
2022/05/19 00:17:25;;;;;;;8.20;2.30;;;;;;;14.53;41.64;101612.87;5389686;32;36959;-83
2022/05/19 00:20:27;;;;;;;5.17;2.13;;;;;;;14.77;41.33;101601.41;5359917;32;34147;-70
2022/05/19 00:23:29;;;;;;;7.83;1.90;;;;;;;14.78;41.98;101611.06;5391550;32;35263;-83
2022/05/19 00:26:32;;;;;;;5.83;2.03;;;;;;;14.28;42.24;101611.06;5373440;32;34785;-77
2022/05/19 00:29:34;;;;;;;7.07;1.90;;;;;;;14.61;41.65;101606.37;5385796;32;34629;-69
2022/05/19 00:32:36;;;;;;;5.30;1.70;;;;;;;15.22;40.82;101600.56;5394960;32;35162;-71
2022/05/19 00:35:39;;;;;;;6.23;2.00;;;;;;;15.38;40.25;101606.97;5382490;32;35365;-82
2022/05/19 00:38:42;;;;;;;6.57;1.90;;;;;;;15.41;40.30;101616.59;5387749;32;45567;-81
2022/05/19 00:41:45;;;;;;;4.65;1.50;;;;;;;15.15;40.58;101618.47;5380669;32;34574;-82
2022/05/19 00:44:47;;;;;;;4.37;1.73;;;;;;;14.12;42.52;101616.97;5386393;32;35117;-82
2022/05/19 00:47:57;;;;;;;3.80;1.57;;;;;;;14.12;41.88;101611.66;5393057;32;36029;-77
2022/05/19 00:51:03;;;;;;;4.10;1.53;;;;;;;14.53;41.35;101619.03;5373680;32;33850;-69
2022/05/19 00:54:08;;;;;;;2.17;1.43;;;;;;;13.69;43.07;101626.31;5397940;32;34252;-84
2022/05/19 00:57:24;;;;;;;3.87;1.50;;;;;;;13.93;42.04;101617.56;5377187;32;46430;-70
2022/05/19 01:00:26;;;;;;;4.70;1.60;;;;;;;14.02;41.83;101626.97;5398245;32;34966;-85
2022/05/19 01:03:33;;;;;;;7.77;2.00;;;;;;;13.65;42.77;101622.88;5372292;32;34171;-69
2022/05/19 01:06:36;;;;;;;3.70;1.50;;;;;;;14.09;41.72;101616.13;5387875;32;35229;-82
2022/05/19 01:09:38;;;;;;;5.60;1.90;;;;;;;14.13;41.30;101616.91;5381323;32;35795;-77
2022/05/19 01:12:44;;;;;;;4.55;1.80;;;;;;;13.85;42.54;101614.34;5362810;32;45165;-83
2022/05/19 01:15:49;;;;;;;5.60;1.80;;;;;;;13.05;44.79;101641.47;5393106;32;34111;-81
2022/05/19 01:18:51;;;;;;;7.60;2.03;;;;;;;12.93;45.17;101637.41;5375494;32;35403;-69
2022/05/19 01:21:55;;;;;;;6.90;2.13;;;;;;;13.48;44.57;101631.34;5368258;32;34750;-82
2022/05/19 01:25:09;;;;;;;4.87;1.87;;;;;;;12.99;45.99;101638.09;5363757;32;34742;-69
2022/05/19 01:28:11;;;;;;;6.72;2.10;;;;;;;13.20;45.05;101618.16;5372867;32;46190;-69
2022/05/19 01:31:44;;;;;;;5.73;1.90;;;;;;;12.86;46.20;101631.44;5395329;32;34934;-84
2022/05/19 01:34:46;;;;;;;8.50;2.00;;;;;;;12.85;46.20;101634.97;5382272;32;44573;-69
2022/05/19 01:37:49;;;;;;;9.67;1.93;;;;;;;13.15;44.85;101635.00;5395226;32;34916;-68
2022/05/19 01:41:13;;;;;;;5.07;1.93;;;;;;;13.09;44.76;101633.41;5381033;32;34778;-69
2022/05/19 01:44:49;;;;;;;3.07;1.50;;;;;;;13.87;42.80;101636.28;5373864;32;47098;-69
2022/05/19 01:48:30;;;;;;;3.57;1.60;;;;;;;13.74;43.25;101632.31;5383060;32;36689;-69
2022/05/19 01:51:47;;;;;;;4.10;1.90;;;;;;;13.99;42.85;101627.94;5339458;32;34606;-68
2022/05/19 01:55:03;;;;;;;3.17;1.60;;;;;;;14.39;41.56;101616.00;5381659;32;46819;-70
2022/05/19 01:58:15;;;;;;;5.70;1.57;;;;;;;14.17;41.90;101622.94;5385957;32;34823;-81
2022/05/19 02:01:19;;;;;;;4.03;1.70;;;;;;;13.08;44.58;101631.69;5374485;32;47205;-77
2022/05/19 02:04:28;;;;;;;2.30;1.50;;;;;;;14.25;42.32;101624.41;5382725;32;35437;-78
2022/05/19 02:07:34;;;;;;;4.93;2.80;;;;;;;13.76;43.00;101630.47;5381335;32;34770;-69
2022/05/19 02:10:40;;;;;;;3.97;1.90;;;;;;;14.42;41.87;101631.72;5379499;32;35358;-81
2022/05/19 02:13:43;;;;;;;4.10;1.90;;;;;;;14.04;42.56;101635.72;5361107;32;44784;-82
2022/05/19 02:16:48;;;;;;;4.70;2.05;;;;;;;13.19;44.93;101624.28;5375069;32;34960;-81
2022/05/19 02:19:57;;;;;;;5.37;2.20;;;;;;;13.85;43.96;101619.63;5381329;32;35632;-70
2022/05/19 02:22:59;;;;;;;8.00;3.13;;;;;;;14.04;43.99;101635.72;5374617;32;34716;-71
2022/05/19 02:26:02;;;;;;;10.87;2.93;;;;;;;12.72;47.56;101638.88;5381263;32;35302;-69
2022/05/19 02:29:08;;;;;;;6.35;1.90;;;;;;;12.58;48.41;101644.53;5388262;32;35322;-68
2022/05/19 02:32:10;;;;;;;4.90;2.10;;;;;;;12.96;47.86;101646.09;5379685;32;34171;-68
2022/05/19 02:35:12;;;;;;;9.53;2.20;;;;;;;12.99;48.37;101645.12;5384806;32;44780;-81
2022/05/19 02:38:16;;;;;;;5.82;2.50;;;;;;;12.73;49.33;101648.53;5380957;32;35917;-82
2022/05/19 02:41:18;;;;;;;4.47;2.07;;;;;;;12.93;49.44;101647.94;5394639;32;34943;-69
2022/05/19 02:44:20;;;;;;;9.67;2.53;;;;;;;13.68;47.18;101636.00;5368129;32;34022;-71
2022/05/19 02:47:22;;;;;;;6.30;2.30;;;;;;;13.51;47.90;101657.66;5384571;32;35433;-80
2022/05/19 02:50:25;;;;;;;6.07;2.53;;;;;;;14.30;46.09;101646.28;5388541;32;36631;-82
2022/05/19 02:53:27;;;;;;;7.43;2.80;;;;;;;12.76;50.53;101669.56;5379244;32;34725;-81
2022/05/19 02:56:29;;;;;;;10.37;2.70;;;;;;;12.34;52.02;101651.34;5393693;32;34758;-77
2022/05/19 02:59:31;;;;;;;5.80;2.10;;;;;;;12.42;52.23;101667.81;5368258;32;34090;-81
2022/05/19 03:02:34;;;;;;;11.00;2.43;;;;;;;12.49;52.57;101663.22;5395777;32;33892;-69
2022/05/19 03:05:36;;;;;;;7.27;2.47;;;;;;;12.74;51.67;101666.94;5378064;32;34865;-80
2022/05/19 03:08:39;;;;;;;7.00;2.30;;;;;;;13.07;51.24;101661.59;5379580;32;35580;-69
2022/05/19 03:11:41;;;;;;;6.67;3.13;;;;;;;13.72;49.46;101668.50;5378733;32;43572;-82
2022/05/19 03:14:43;;;;;;;6.40;2.10;;;;;;;12.50;53.14;101658.84;5373386;32;34724;-68
2022/05/19 03:17:45;;;;;;;6.83;2.13;;;;;;;11.91;55.31;101672.62;5389334;32;34646;-69
2022/05/19 03:20:47;;;;;;;7.10;2.47;;;;;;;12.48;53.60;101669.41;5374409;32;34388;-82
2022/05/19 03:23:50;;;;;;;7.93;2.43;;;;;;;12.61;53.77;101664.69;5387242;32;35268;-84
2022/05/19 03:26:52;;;;;;;6.93;2.40;;;;;;;13.04;52.40;101655.56;5356171;32;36588;-69
2022/05/19 03:29:54;;;;;;;5.17;2.20;;;;;;;13.68;50.79;101670.34;5380239;32;35374;-69
2022/05/19 03:32:56;;;;;;;6.23;2.37;;;;;;;12.46;53.59;101672.09;5397454;32;34942;-81
2022/05/19 03:36:00;;;;;;;24.83;3.90;;;;;;;12.24;55.30;101678.84;5381870;32;34638;-69
2022/05/19 03:39:02;;;;;;;5.83;2.10;;;;;;;12.62;54.26;101676.97;5396171;32;36090;-69
2022/05/19 03:42:06;;;;;;;8.10;2.60;;;;;;;12.73;54.09;101677.53;5379442;32;34583;-70
2022/05/19 03:45:09;;;;;;;8.53;2.47;;;;;;;12.59;54.83;101684.97;5393939;32;34906;-83
2022/05/19 03:48:11;;;;;;;10.00;2.70;;;;;;;12.54;55.12;101687.72;5375087;32;45920;-70
2022/05/19 03:51:25;;;;;;;5.20;2.27;;;;;;;12.91;54.38;101684.09;5380725;32;34919;-84
2022/05/19 03:54:27;;;;;;;7.63;2.53;;;;;;;13.50;52.64;101692.06;5380289;32;34689;-76
2022/05/19 03:57:30;;;;;;;6.00;2.87;;;;;;;13.05;54.19;101691.59;5379736;32;34633;-83
2022/05/19 04:00:33;;;;;;;6.00;2.43;;;;;;;13.20;52.91;101684.16;5401849;32;35058;-77
2022/05/19 04:03:35;;;;;;;14.82;3.08;;;;;;;12.81;54.79;101698.44;5374477;32;34653;-69
2022/05/19 04:06:38;;;;;;;9.63;2.60;;;;;;;13.50;52.36;101698.19;5391146;32;35537;-82
2022/05/19 04:09:40;;;;;;;6.50;2.17;;;;;;;13.07;52.39;101703.84;5394255;32;35964;-70
2022/05/19 04:12:43;;;;;;;6.70;2.50;;;;;;;12.52;54.19;101699.22;5364447;32;47115;-81
2022/05/19 04:15:45;;;;;;;8.48;2.40;;;;;;;13.04;52.08;101708.34;5399957;32;34578;-82
2022/05/19 04:18:47;;;;;;;10.20;3.50;;;;;;;13.96;48.92;101701.19;5380305;32;35196;-69
2022/05/19 04:21:49;;;;;;;9.53;2.53;;;;;;;13.30;50.58;101705.84;5390294;32;34253;-82
2022/05/19 04:24:51;;;;;;;10.63;3.40;;;;;;;13.43;50.17;101709.88;5384084;32;34842;-69
2022/05/19 04:27:53;;;;;;;7.03;3.17;;;;;;;13.55;50.58;101709.50;5387017;32;33973;-81
2022/05/19 04:30:56;;;;;;;10.60;2.80;;;;;;;15.30;45.99;101708.84;5377255;32;34749;-82
2022/05/19 04:33:58;;;;;;;7.35;2.62;;;;;;;14.60;46.67;101714.91;5373312;32;34772;-82
2022/05/19 04:37:00;;;;;;;7.07;2.50;;;;;;;15.48;44.35;101716.09;5401732;32;35490;-77
2022/05/19 04:40:04;;;;;;;5.47;2.00;;;;;;;16.26;42.07;101710.34;5356203;32;34607;-77
2022/05/19 04:43:07;;;;;;;7.83;2.67;;;;;;;15.62;42.69;101713.81;5398270;32;35550;-70
2022/05/19 04:46:09;;;;;;;9.27;2.92;;;;;;;16.56;40.75;101702.03;5383618;32;34893;-70
2022/05/19 04:49:11;;;;;;;8.80;2.80;;;;;;;17.25;39.27;101713.12;5387835;32;46619;-83
2022/05/19 04:52:13;;;;;;;24.23;15.30;;;;;;;16.33;40.70;101713.62;5395161;32;34587;-83
2022/05/19 04:55:16;;;;;;;14.30;5.22;;;;;;;16.72;39.92;101713.72;5384918;32;35044;-72
2022/05/19 04:58:18;;;;;;;9.65;3.70;;;;;;;17.55;38.41;101710.84;5385051;32;34539;-71
2022/05/19 05:01:20;;;;;;;9.52;4.70;;;;;;;17.48;38.47;101712.06;5384705;32;34941;-84
2022/05/19 05:04:23;;;;;;;9.65;4.70;;;;;;;17.72;37.59;101713.59;5398519;32;34989;-83
2022/05/19 05:07:25;;;;;;;;;;;;;;;16.81;39.45;101713.34;5373761;32;34205;-82
2022/05/19 05:10:27;;;;;;;6.87;2.60;;;;;;;19.79;33.60;101700.16;5382099;32;35362;-73
2022/05/19 05:13:29;;;;;;;6.10;2.53;;;;;;;19.29;34.34;101712.66;5369059;32;34078;-71
2022/05/19 05:16:32;;;;;;;6.78;2.90;;;;;;;17.61;37.02;101715.84;5370730;32;34228;-79
2022/05/19 05:19:34;;;;;;;8.68;2.95;;;;;;;17.95;37.12;101714.25;5394171;32;35134;-77
2022/05/19 05:22:36;;;;;;;6.72;3.08;;;;;;;18.91;35.44;101707.56;5366359;32;34627;-66
2022/05/19 05:25:39;;;;;;;7.90;3.72;;;;;;;17.79;37.07;101722.13;5387396;32;34841;-67
2022/05/19 05:28:41;;;;;;;8.40;3.10;;;;;;;19.03;35.10;101711.41;5355953;32;46035;-80
2022/05/19 05:31:44;;;;;;;6.20;3.03;;;;;;;18.73;35.60;101719.19;5364379;32;34826;-67
2022/05/19 05:34:46;;;;;;;10.63;3.08;;;;;;;19.69;33.77;101706.00;5392934;32;35402;-76
2022/05/19 05:37:48;;;;;;;6.47;3.10;;;;;;;20.62;32.12;101715.75;5368062;32;33958;-76
2022/05/19 05:40:50;;;;;;;8.82;3.12;;;;;;;21.38;30.56;101720.84;5378451;32;34120;-79
2022/05/19 05:43:52;;;;;;;7.82;3.00;;;;;;;21.13;30.62;101718.00;5367745;32;33997;-83
2022/05/19 05:46:55;;;;;;;8.88;3.30;;;;;;;20.91;31.54;101719.31;5388508;32;34229;-83
2022/05/19 05:49:57;;;;;;;12.23;3.53;;;;;;;19.96;32.68;101724.03;5378654;32;34606;-79
2022/05/19 05:52:59;;;;;;;7.78;3.72;;;;;;;20.90;31.13;101725.63;5371844;32;34193;-76
2022/05/19 05:56:04;;;;;;;11.20;3.62;;;;;;;20.72;31.54;101718.72;5375337;32;34909;-66
2022/05/19 05:59:06;;;;;;;6.53;2.67;;;;;;;20.37;31.50;101721.66;5369443;32;34314;-67
2022/05/19 06:02:08;;;;;;;11.65;3.17;;;;;;;22.47;27.20;101719.94;5384290;32;35026;-69
2022/05/19 06:05:13;;;;;;;9.95;4.35;;;;;;;20.89;29.44;101717.69;5395029;32;46297;-88
2022/05/19 06:08:15;;;;;;;8.20;3.35;;;;;;;22.95;26.70;101712.22;5388562;32;35755;-72
2022/05/19 06:11:18;;;;;;;12.35;3.53;;;;;;;23.43;26.17;101707.00;5363903;32;36949;-75
2022/05/19 06:14:21;;;;;;;8.43;3.55;;;;;;;22.24;26.75;101712.63;5352862;32;34082;-80
2022/05/19 06:17:27;;;;;;;11.65;4.95;;;;;;;21.85;27.79;101719.62;5386548;32;35361;-83
2022/05/19 06:20:30;;;;;;;18.37;4.28;;;;;;;22.27;27.32;101712.41;5368682;32;34201;-79
2022/05/19 06:23:33;;;;;;;10.10;4.32;;;;;;;21.62;28.07;101705.91;5386336;32;33781;-75
2022/05/19 06:26:39;;;;;;;12.07;4.18;;;;;;;23.59;24.95;101704.91;5370840;32;34190;-79
2022/05/19 06:29:42;;;;;;;11.35;3.80;;;;;;;24.51;24.17;101703.44;5385011;32;42338;-77
2022/05/19 06:32:45;;;;;;;9.25;3.87;;;;;;;25.79;21.95;101704.00;5378198;32;34124;-77
2022/05/19 06:35:47;;;;;;;10.52;3.80;;;;;;;26.24;21.11;101708.37;5370085;32;34845;-77
2022/05/19 06:38:49;;;;;;;7.53;3.90;;;;;;;25.66;21.87;101714.03;5380226;32;37783;-79
2022/05/19 06:42:00;;;;;;;13.05;4.37;;;;;;;24.52;22.46;101713.22;5369602;32;35988;-79
2022/05/19 06:45:04;;;;;;;11.60;4.25;;;;;;;24.05;23.30;101712.28;5385590;32;34388;-70
2022/05/19 06:48:06;;;;;;;6.45;3.17;;;;;;;24.09;22.32;101707.53;5374595;32;33983;-70
2022/05/19 06:51:09;;;;;;;9.13;3.47;;;;;;;24.56;20.64;101718.25;5383422;32;35288;-75
2022/05/19 06:54:23;;;;;;;8.90;3.60;;;;;;;25.21;20.61;101714.06;5377238;32;34282;-76
2022/05/19 06:57:26;;;;;;;12.90;3.75;;;;;;;25.17;20.19;101717.97;5362651;32;34874;-79
2022/05/19 07:00:29;;;;;;;10.52;3.50;;;;;;;24.23;21.26;101716.28;5377167;32;37842;-74
2022/05/19 07:03:31;;;;;;;7.72;3.20;;;;;;;26.28;18.96;101705.28;5357162;32;35266;-75
2022/05/19 07:06:35;;;;;;;10.80;3.60;;;;;;;24.95;20.29;101707.19;5373613;32;34275;-74
2022/05/19 07:09:38;;;;;;;4.62;2.67;;;;;;;26.96;18.50;101703.03;5361371;32;34730;-80
2022/05/19 07:12:43;;;;;;;10.50;3.28;;;;;;;28.20;15.98;101702.66;5355359;32;45974;-79
2022/05/19 07:15:45;;;;;;;8.60;3.12;;;;;;;27.79;17.26;101699.25;5388984;32;34816;-78
2022/05/19 07:18:47;;;;;;;8.82;3.65;;;;;;;28.27;16.65;101707.38;5381460;32;33885;-75
2022/05/19 07:21:49;;;;;;;5.72;2.20;;;;;;;28.43;16.42;101703.25;5398133;32;35487;-80
2022/05/19 07:24:52;;;;;;;9.00;2.92;;;;;;;29.84;14.70;101696.72;5387298;32;34211;-77
2022/05/19 07:27:54;;;;;;;7.20;2.55;;;;;;;27.75;16.51;101704.06;5391905;32;35002;-71
2022/05/19 07:30:57;;;;;;;6.53;2.58;;;;;;;29.44;14.96;101702.53;5369565;32;34163;-80
2022/05/19 07:33:59;;;;;;;9.07;2.45;;;;;;;26.67;17.50;101695.66;5368591;32;34027;-69
2022/05/19 07:37:02;;;;;;;7.35;2.30;;;;;;;27.54;17.03;101696.03;5380669;32;35623;-73
2022/05/19 07:40:06;;;;;;;9.10;2.58;;;;;;;26.44;16.94;101697.63;5371236;32;34775;-71
2022/05/19 07:46:29;;;;;;;7.40;2.30;;;;;;;29.41;14.58;101689.28;5382276;32;34709;-86
2022/05/19 07:49:32;;;;;;;6.47;2.35;;;;;;;30.11;14.44;101682.28;5365267;32;34710;-74
2022/05/19 07:52:35;;;;;;;11.02;2.37;;;;;;;26.33;17.25;101686.84;5370678;32;35852;-77
2022/05/19 07:55:37;;;;;;;7.25;2.45;;;;;;;28.55;15.75;101685.88;5365473;32;34178;-78
2022/05/19 07:58:39;;;;;;;9.70;3.12;;;;;;;26.80;17.86;101679.25;5380276;32;34600;-72
2022/05/19 08:01:43;;;;;;;4.82;1.77;;;;;;;29.24;15.78;101668.41;5361693;32;46935;-71
2022/05/19 08:04:52;;;;;;;8.77;2.35;;;;;;;29.07;12.87;101689.03;5378779;32;33732;-73
2022/05/19 08:07:54;;;;;;;5.53;1.95;;;;;;;29.02;13.41;101685.91;5377974;32;35950;-72
2022/05/19 08:10:57;;;;;;;3.37;1.77;;;;;;;28.52;13.25;101678.03;5370964;32;34216;-70
2022/05/19 08:17:20;;;;;;;6.05;2.00;;;;;;;26.63;15.44;101680.72;5362389;32;46015;-75
2022/05/19 08:20:23;;;;;;;7.90;2.37;;;;;;;27.18;14.92;101683.16;5381321;32;37063;-76
2022/05/19 08:23:29;;;;;;;6.35;1.92;;;;;;;27.75;14.81;101681.59;5357697;32;33988;-76
2022/05/19 08:26:31;;;;;;;5.78;2.08;;;;;;;29.49;12.86;101681.25;5373717;32;35305;-75
2022/05/19 08:29:34;;;;;;;7.68;1.98;;;;;;;29.58;12.40;101680.38;5377948;32;34219;-79
2022/05/19 08:32:38;;;;;;;5.47;2.10;;;;;;;28.81;12.74;101677.97;5364380;32;33975;-79
2022/05/19 08:35:41;;;;;;;11.40;2.08;;;;;;;28.53;13.87;101686.03;5380295;32;43185;-77
2022/05/19 08:38:43;;;;;;;7.87;1.90;;;;;;;27.71;14.79;101680.19;5370742;32;35418;-71
2022/05/19 08:41:56;;;;;;;4.75;2.17;;;;;;;30.51;11.84;101667.31;5381484;32;34209;-74
2022/05/19 08:45:03;;;;;;;3.45;1.52;;;;;;;29.24;11.98;101684.66;5367389;32;34142;-75
2022/05/19 08:48:21;;;;;;;8.43;2.00;;;;;;;29.89;11.68;101677.31;5380449;32;34323;-74
2022/05/19 08:51:27;;;;;;;6.57;1.50;;;;;;;29.71;12.48;101673.72;5381807;32;35446;-78
2022/05/19 08:54:31;;;;;;;5.05;2.05;;;;;;;31.97;10.45;101672.56;5370543;32;34106;-77
2022/05/19 08:57:40;;;;;;;6.50;1.83;;;;;;;28.79;12.48;101671.88;5369490;32;33993;-72
2022/05/19 09:00:48;;;;;;;8.27;2.10;;;;;;;29.81;11.55;101671.78;5362811;32;42775;-72
2022/05/19 09:04:06;;;;;;;6.53;1.90;;;;;;;29.81;11.88;101675.34;5366343;32;34284;-72
2022/05/19 09:11:04;;;;;;;4.00;1.80;;;;;;;29.94;12.42;101656.00;5341484;32;34402;-74
2022/05/19 09:14:17;;;;;;;5.35;1.73;;;;;;;30.35;12.21;101654.50;5356904;32;35021;-77
2022/05/19 09:17:25;;;;;;;5.03;2.00;;;;;;;31.85;10.81;101657.59;5392557;32;43151;-78
2022/05/19 09:20:45;;;;;;;9.70;2.87;;;;;;;31.71;11.00;101661.78;5368203;32;36483;-80
2022/05/19 09:23:48;;;;;;;9.32;1.85;;;;;;;31.07;11.33;101652.41;5383650;32;44058;-71
2022/05/19 09:26:52;;;;;;;6.68;2.03;;;;;;;31.13;11.54;101657.19;5376638;32;36745;-69
2022/05/19 09:29:57;;;;;;;5.30;1.70;;;;;;;28.67;12.74;101654.97;5378546;32;34340;-72
2022/05/19 09:33:00;;;;;;;6.00;1.87;;;;;;;32.31;10.10;101645.19;5382462;32;34124;-75
2022/05/19 09:36:11;;;;;;;6.15;1.95;;;;;;;30.48;11.89;101643.25;5373865;32;34240;-69
2022/05/19 09:39:17;;;;;;;4.00;1.50;;;;;;;29.10;12.92;101653.53;5380396;32;46828;-76
2022/05/19 09:42:33;;;;;;;4.93;1.90;;;;;;;31.60;10.90;101640.37;5364017;32;35327;-70
2022/05/19 09:45:44;;;;;;;8.82;2.08;;;;;;;29.54;12.28;101643.75;5383372;32;34333;-67
2022/05/19 09:49:02;;;;;;;5.73;1.93;;;;;;;29.95;11.97;101636.03;5373022;32;44615;-68
2022/05/19 09:52:07;;;;;;;6.25;1.80;;;;;;;30.05;12.30;101636.78;5366552;32;34287;-68
2022/05/19 09:55:11;;;;;;;7.90;2.00;;;;;;;32.10;10.87;101622.25;5376039;32;35488;-69
2022/05/19 09:58:15;;;;;;;3.53;1.50;;;;;;;31.67;11.33;101622.38;5360919;32;44711;-69
2022/05/19 10:01:30;;;;;;;4.12;1.80;;;;;;;32.24;10.76;101619.69;5377544;32;35424;-74
2022/05/19 10:04:41;;;;;;;10.45;2.05;;;;;;;31.81;10.96;101619.00;5367938;32;34197;-72
2022/05/19 10:07:47;;;;;;;3.47;1.67;;;;;;;31.72;10.82;101622.72;5373005;32;44391;-67
2022/05/19 10:11:17;;;;;;;4.97;1.60;;;;;;;31.23;11.25;101617.19;5383089;32;33992;-74
2022/05/19 10:14:29;;;;;;;3.22;1.80;;;;;;;31.43;11.41;101609.63;5356940;32;44445;-75
2022/05/19 10:17:53;;;;;;;6.30;1.70;;;;;;;33.33;9.73;101588.19;5377421;32;34443;-73
2022/05/19 10:21:17;;;;;;;3.30;1.67;;;;;;;32.17;10.39;101602.38;5385387;32;34079;-68
2022/05/19 10:24:44;;;;;;;3.12;1.83;;;;;;;33.58;9.68;101594.38;5368553;32;35725;-81
2022/05/19 10:31:46;;;;;;;4.55;1.27;;;;;;;31.00;11.55;101597.91;5380702;32;36222;-85
2022/05/19 10:34:54;;;;;;;4.53;1.60;;;;;;;33.04;9.70;101588.88;5369321;32;46654;-77
2022/05/19 10:38:48;;;;;;;2.58;1.40;;;;;;;31.93;10.29;101583.34;5381771;32;34069;-76
2022/05/19 10:42:17;;;;;;;6.43;1.70;;;;;;;34.09;8.70;101575.56;5336060;32;35418;-76
2022/05/19 10:45:40;;;;;;;7.50;2.40;;;;;;;33.97;8.83;101569.69;5317245;32;44602;-69
2022/05/19 10:48:51;;;;;;;4.45;1.67;;;;;;;36.24;7.52;101553.91;5379054;32;46559;-70
2022/05/19 10:52:01;;;;;;;;;;;;;;;34.95;8.46;101558.53;5363191;32;35777;-81
2022/05/19 10:55:19;;;;;;;7.00;1.40;;;;;;;33.63;8.98;101553.78;5350490;32;34245;-77
2022/05/19 10:58:50;;;;;;;2.35;1.30;;;;;;;33.83;9.07;101544.06;5372532;32;35474;-77
2022/05/19 11:01:59;;;;;;;3.50;1.23;;;;;;;36.33;7.56;101544.50;5367862;32;34232;-73
2022/05/19 11:05:13;;;;;;;6.18;1.20;;;;;;;34.21;8.65;101553.09;5372801;32;34166;-77
2022/05/19 11:08:30;;;;;;;4.68;1.20;;;;;;;33.84;8.69;101532.13;5369869;32;45372;-74
2022/05/19 11:12:00;;;;;;;8.48;1.80;;;;;;;34.59;8.36;101531.19;5369198;32;35396;-73
2022/05/19 11:15:05;;;;;;;6.15;1.20;;;;;;;32.69;9.57;101527.59;5375480;32;34548;-74
2022/05/19 11:18:29;;;;;;;3.50;1.25;;;;;;;32.54;9.28;101522.06;5367631;32;34868;-82
2022/05/19 11:22:05;;;;;;;2.25;1.30;;;;;;;35.89;7.42;101519.34;5382483;32;35668;-77
2022/05/19 11:28:38;;;;;;;3.87;1.30;;;;;;;36.18;6.70;101515.53;5371396;32;35364;-84
2022/05/19 11:32:04;;;;;;;15.23;1.77;;;;;;;35.25;7.65;101520.22;5380042;32;43529;-73
2022/05/19 11:35:24;;;;;;;2.83;1.30;;;;;;;36.66;6.62;101502.78;5378146;32;34262;-73
2022/05/19 11:38:36;;;;;;;4.10;1.27;;;;;;;38.32;5.50;101502.91;5361867;32;35787;-73
2022/05/19 11:41:39;;;;;;;7.12;1.35;;;;;;;37.52;6.19;101497.50;5385467;32;35545;-73
2022/05/19 11:44:43;;;;;;;8.27;2.33;;;;;;;36.71;6.68;101483.84;5367676;32;44393;-77
2022/05/19 11:55:20;;;;;;;3.35;1.20;;;;;;;35.43;7.57;101470.59;5368073;32;34268;-75
2022/05/19 11:58:26;;;;;;;4.47;1.30;;;;;;;37.92;6.25;101467.31;5368410;32;35466;-77
2022/05/19 12:01:33;;;;;;;3.25;1.25;;;;;;;35.80;7.44;101466.66;5360706;32;34207;-70
2022/05/19 12:04:37;;;;;;;4.35;1.30;;;;;;;34.45;8.25;101466.53;5369992;32;35790;-80
2022/05/19 12:07:51;;;;;;;3.92;1.25;;;;;;;37.51;6.68;101462.09;5384267;32;34369;-74
2022/05/19 12:11:08;;;;;;;1.67;1.20;;;;;;;35.93;7.44;101453.09;5367223;32;36056;-68
2022/05/19 12:14:10;;;;;;;5.40;1.50;;;;;;;35.13;7.83;101453.47;5357014;32;34249;-71
2022/05/19 12:17:27;;;;;;;3.65;1.42;;;;;;;31.94;9.73;101462.69;5375540;32;44137;-81
2022/05/19 12:20:38;;;;;;;5.75;1.62;;;;;;;31.65;9.97;101457.81;5371774;32;35243;-81
2022/05/19 12:23:42;;;;;;;8.50;1.43;;;;;;;30.28;10.92;101457.34;5395210;32;35195;-75
2022/05/19 12:26:59;;;;;;;6.22;1.42;;;;;;;29.89;11.01;101455.09;5365967;32;35231;-86
2022/05/19 12:33:29;;;;;;;8.75;2.00;;;;;;;28.64;11.94;101449.69;5379891;32;35554;-69
2022/05/19 12:36:41;;;;;;;2.87;1.30;;;;;;;26.79;13.85;101452.81;5370297;32;35892;-73
2022/05/19 12:39:48;;;;;;;1.85;1.30;;;;;;;27.77;13.11;101450.03;5388223;32;44473;-80
2022/05/19 12:43:13;;;;;;;3.87;1.40;;;;;;;27.61;13.17;101438.94;5379759;32;34961;-73
2022/05/19 12:46:33;;;;;;;2.73;1.17;;;;;;;27.09;13.63;101446.50;5368920;32;44307;-78
2022/05/19 12:49:36;;;;;;;3.80;1.48;;;;;;;27.25;13.48;101452.22;5381197;32;34148;-82
2022/05/19 12:52:58;;;;;;;2.03;1.42;;;;;;;27.83;13.27;101444.06;5372368;32;34132;-82
2022/05/19 12:56:00;;;;;;;3.23;1.30;;;;;;;28.12;12.71;101440.41;5384139;32;34283;-73
2022/05/19 12:59:05;;;;;;;3.90;1.30;;;;;;;26.43;14.03;101442.53;5369210;32;34126;-73
2022/05/19 13:02:11;;;;;;;2.10;1.27;;;;;;;27.53;13.55;101437.81;5370322;32;34487;-81
2022/05/19 13:05:31;;;;;;;5.93;1.50;;;;;;;27.71;13.03;101431.72;5395232;32;44538;-88
2022/05/19 13:08:38;;;;;;;4.10;1.45;;;;;;;26.85;13.62;101428.84;5386831;32;33354;-87
2022/05/19 13:11:48;;;;;;;6.07;1.70;;;;;;;26.46;14.28;101417.16;5365846;32;43347;-73
2022/05/19 13:14:59;;;;;;;4.32;1.45;;;;;;;26.65;14.11;101417.19;5361364;32;36218;-75
2022/05/19 13:18:06;;;;;;;3.17;1.50;;;;;;;27.68;13.21;101405.84;5373170;32;35273;-70
2022/05/19 13:21:19;;;;;;;4.68;1.30;;;;;;;27.96;13.37;101414.00;5377896;32;33958;-70
2022/05/19 13:24:21;;;;;;;;;;;;;;;28.24;13.13;101417.59;5369180;32;34383;-72
2022/05/19 13:30:58;;;;;;;3.47;1.40;;;;;;;27.02;13.74;101403.03;5370100;32;34061;-77
2022/05/19 13:34:00;;;;;;;3.75;1.40;;;;;;;27.45;13.08;101412.56;5361390;32;34600;-78
2022/05/19 13:37:03;;;;;;;3.75;1.23;;;;;;;26.37;14.50;101401.78;5384484;32;34423;-76
2022/05/19 13:40:12;;;;;;;4.05;1.33;;;;;;;27.44;13.27;101400.06;5373157;32;34720;-68
2022/05/19 13:43:23;;;;;;;3.65;1.48;;;;;;;27.40;13.51;101395.94;5377492;32;44361;-75
2022/05/19 13:46:27;;;;;;;2.50;1.40;;;;;;;27.92;13.38;101402.63;5373400;32;34534;-81
2022/05/19 13:49:30;;;;;;;6.12;1.55;;;;;;;26.98;13.84;101394.38;5382007;32;35355;-77
2022/05/19 13:52:35;;;;;;;3.87;1.65;;;;;;;27.00;13.82;101400.47;5368669;32;35978;-77
2022/05/19 13:55:38;;;;;;;8.32;2.15;;;;;;;27.66;13.14;101394.31;5354807;32;34209;-67
2022/05/19 13:58:48;;;;;;;4.07;1.48;;;;;;;26.80;13.99;101393.37;5369962;32;34385;-77
2022/05/19 14:01:55;;;;;;;4.62;1.40;;;;;;;26.55;14.27;101383.13;5367073;32;35451;-78
2022/05/19 14:04:57;;;;;;;5.70;1.33;;;;;;;27.25;13.73;101379.34;5371821;32;35250;-69
2022/05/19 14:08:00;;;;;;;;;;;;;;;27.43;13.96;101376.72;5367353;32;35211;-69
2022/05/19 14:11:23;;;;;;;2.83;1.30;;;;;;;26.64;14.63;101382.28;5354505;32;35851;-82
2022/05/19 14:14:25;;;;;;;4.10;1.40;;;;;;;26.16;15.05;101381.16;5369303;32;34081;-68
2022/05/19 14:17:54;;;;;;;3.03;1.77;;;;;;;26.05;15.39;101375.03;5368185;32;44386;-68
2022/05/19 14:21:06;;;;;;;3.83;1.60;;;;;;;25.92;15.41;101372.56;5383393;32;35223;-83
2022/05/19 14:24:16;;;;;;;4.85;2.30;;;;;;;25.50;15.53;101367.19;5373532;32;34555;-77
2022/05/19 14:27:21;;;;;;;3.70;1.52;;;;;;;26.26;15.06;101365.00;5372440;32;44470;-69
2022/05/19 14:30:28;;;;;;;5.78;1.50;;;;;;;26.82;14.31;101358.19;5393401;32;34577;-81
2022/05/19 14:33:52;;;;;;;6.72;1.80;;;;;;;27.32;14.43;101353.47;5377804;32;36436;-69
2022/05/19 14:37:07;;;;;;;4.22;1.87;;;;;;;26.81;14.82;101341.16;5396066;32;34849;-83
2022/05/19 14:43:43;;;;;;;3.00;1.60;;;;;;;26.52;14.78;101348.34;5382180;32;36063;-70
2022/05/19 14:46:58;;;;;;;4.25;1.60;;;;;;;26.48;15.25;101330.78;5393662;32;44512;-70
2022/05/19 14:50:07;;;;;;;3.35;1.40;;;;;;;27.05;14.98;101337.12;5369716;32;35324;-81
2022/05/19 14:53:13;;;;;;;4.90;2.03;;;;;;;26.99;14.93;101330.50;5379611;32;34815;-80
2022/05/19 14:56:21;;;;;;;3.83;1.60;;;;;;;25.87;16.14;101339.78;5386509;32;44619;-80
2022/05/19 14:59:38;;;;;;;3.35;1.62;;;;;;;26.10;15.81;101318.91;5378379;32;34562;-80
2022/05/19 15:02:40;;;;;;;3.72;1.92;;;;;;;27.26;15.12;101324.38;5395310;32;35694;-70
2022/05/19 15:05:44;;;;;;;10.73;1.80;;;;;;;26.97;15.53;101313.59;5380582;32;34873;-82
2022/05/19 15:08:53;;;;;;;2.75;1.60;;;;;;;26.25;16.24;101317.50;5390695;32;34289;-69